Flight Track Log - Related Links

Times and Time Zones

All times are in EDT time to prevent confusion due to time zone crossing. See the EJA982 flight status page for this flight to view local times or setup timezone preferences in your user account.

Time Position Orientation Groundspeed Altitude Reporting Facility
EDT Latitude Longitude Course Direction KTS MPH feet Rate Location/Type
Wed 04:57:44 PM 32.1175 -110.9411 316° Northwest 176 203 3,200  Level Albuquerque Center
Wed 04:58:31 PM 32.1481 -110.9756 316° Northwest 192 221 5,300 2,955 Climbing Albuquerque Center
Wed 04:58:51 PM 32.1600 -110.9950 306° West 195 224 6,500 2,806 Climbing Albuquerque Center
Wed 04:59:33 PM 32.1822 -111.0294 307° West 206 237 8,200 2,135 Climbing Albuquerque Center
Wed 05:00:35 PM 32.2172 -111.1081 298° West 253 291 10,200 1,887 Climbing Albuquerque Center
Wed 05:01:37 PM 32.2633 -111.1964 302° West 306 352 12,100 2,098 Climbing Albuquerque Center
Wed 05:02:38 PM 32.3111 -111.3011 298° West 348 400 14,500 2,390 Climbing Albuquerque Center
Wed 05:03:40 PM 32.3622 -111.4069 300° West 366 421 17,000 2,323 Climbing Albuquerque Center
Wed 05:04:42 PM 32.4242 -111.5372 299° West 375 432 19,300 1,935 Climbing Albuquerque Center
Wed 05:05:44 PM 32.4783 -111.6525 299° West 392 451 21,000 1,694 Climbing Albuquerque Center
Wed 05:06:46 PM 32.5422 -111.7636 304° West 404 465 22,800 1,742 Climbing Albuquerque Center
Wed 05:07:48 PM 32.6108 -111.8750 306° West 414 476 24,600 1,694 Climbing Albuquerque Center
Wed 05:08:50 PM 32.6797 -111.9878 306° West 419 482 26,300 2,032 Climbing Albuquerque Center
Wed 05:09:52 PM 32.7489 -112.1042 305° West 427 491 28,800 1,597 Climbing Albuquerque Center
Wed 05:10:54 PM 32.8192 -112.2181 306° West 427 491 29,600 1,113 Climbing Albuquerque Center
Wed 05:11:56 PM 32.9072 -112.3675 305° West 447 514 31,100 1,171 Climbing Albuquerque Center
Wed 05:12:57 PM 32.9822 -112.4928 306° West 463 533 32,000 439 Climbing Albuquerque Center
Wed 05:13:59 PM 33.0614 -112.6247 306° West 481 554 32,000  Level Albuquerque Center
Wed 05:15:01 PM 33.1419 -112.7586 306° West 494 568 32,000  Level Albuquerque Center
Wed 05:16:03 PM 33.2222 -112.8942 305° West 500 575 32,000  Level Albuquerque Center
Wed 05:17:05 PM 33.3019 -113.0283 305° West 500 575 32,000  Level Albuquerque Center
Wed 05:18:07 PM 33.3972 -113.1900 305° West 500 575 32,000  Level Albuquerque Center
Wed 05:19:09 PM 33.4758 -113.3242 305° West 496 571 32,000  Level Albuquerque Center
Wed 05:20:11 PM 33.5550 -113.4594 305° West 496 571 32,000  Level Albuquerque Center
Wed 05:21:13 PM 33.5961 -113.6164 287° West 501 577 32,000  Level Albuquerque Center
Wed 05:22:14 PM 33.6153 -113.7889 278° West 498 573 32,000  Level Albuquerque Center
Wed 05:23:16 PM 33.6331 -113.9528 277° West 497 572 32,000  Level Albuquerque Center
Wed 05:24:18 PM 33.6494 -114.1183 277° West 499 574 32,000  Level Albuquerque Center
Wed 05:25:20 PM 33.6706 -114.3050 278° West 500 575 32,000  Level Albuquerque Center
Wed 05:26:22 PM 33.6856 -114.4708 276° West 501 577 32,000  Level Albuquerque Center
Wed 05:27:26 PM 33.7050 -114.6417 278° West 500 575 32,000  Level Los Angeles Center
Wed 05:28:28 PM 33.7217 -114.8072 277° West 501 577 32,000  Level Los Angeles Center
Wed 05:29:30 PM 33.7414 -115.0053 277° West 500 575 32,000  Level Los Angeles Center
Wed 05:30:32 PM 33.7569 -115.1714 276° West 503 579 32,000  Level Los Angeles Center
Wed 05:31:34 PM 33.7725 -115.3372 276° West 502 578 32,000  Level Los Angeles Center
Wed 05:32:36 PM 33.7881 -115.5025 277° West 502 578 32,000  Level Los Angeles Center
Wed 05:33:38 PM 33.8039 -115.6683 277° West 500 575 32,000 -919 Level Los Angeles Center
Wed 05:34:40 PM 33.8211 -115.8656 276° West 497 572 30,100 -1,790 Descending Los Angeles Center
Wed 05:35:42 PM 33.8347 -116.0300 276° West 498 573 28,300 -1,632 Descending Los Angeles Center
Wed 05:36:45 PM 33.8494 -116.1808 277° West 463 533 26,700 -1,440 Descending Los Angeles Center
Wed 05:37:47 PM 33.8594 -116.3097 275° West 403 464 25,300 -1,645 Descending Los Angeles Center
Wed 05:38:49 PM 33.8717 -116.4425 276° West 399 459 23,300 -2,710 Descending Los Angeles Center
Wed 05:39:51 PM 33.8783 -116.5975 273° West 392 451 19,700 -3,290 Descending Los Angeles Center
Wed 05:40:53 PM 33.8844 -116.7197 273° West 374 430 16,500 -2,806 Descending Los Angeles Center
Wed 05:41:55 PM 33.8897 -116.8400 273° West 364 419 13,900 -1,871 Descending Los Angeles Center
Wed 05:43:59 PM 33.8606 -117.0478 260° West 310 357 10,700 -1,765 Descending Los Angeles Center
Wed 05:45:02 PM 33.8442 -117.1603 260° West 302 348 8,400 -1,296 Descending Los Angeles Center
Wed 05:46:04 PM 33.8294 -117.2542 259° West 288 331 8,000 -242 Descending Los Angeles Center
Wed 05:47:06 PM 33.8158 -117.3486 260° West 287 330 7,900 -44 Descending Los Angeles Center
Wed 05:48:20 PM 33.7986 -117.4628 260° West 290 334 7,900 -221 Level Los Angeles Center
Wed 05:49:22 PM 33.7864 -117.5486 260° West 270 311 7,400 -672 Descending Los Angeles Center
Wed 05:50:25 PM 33.7839 -117.6481 268° West 256 295 6,500 -702 Descending Los Angeles Center
Wed 05:50:56 PM 33.8000 -117.6833 299° West 239 275 6,300 -1,253 Descending Southern California TRACON
Wed 05:51:56 PM 33.8167 -117.7500 287° West 238 274 4,600 -1,650 Descending Southern California TRACON
Wed 05:52:56 PM 33.7667 -117.8000 220° Southwest 219 252 3,000 -1,600 Descending Southern California TRACON
Wed 05:53:56 PM 33.7333 -117.8333 220° Southwest 149 171 1,400 -1,200 Descending Southern California TRACON
Wed 05:54:56 PM 33.7000 -117.8500 203° Southwest 125 144 600 -800 Descending Southern California TRACON
Wed 05:57:00 PM 33.6757 -117.8682 132° Southeast  Level Estimated
Wed 06:04:00 PM 33.6757 -117.8682 132° Southeast  Level Estimated

Login

Don't have an account? Register now (free) for customized features, flight alerts, and more!